Isle of Harris, United Kingdom
Current Conditions -  °F | °C
As of 9:50 AM on Thursday 23 Oct 2014 (Local Time) from EGPO Reporting Station
Rain Showers Rain Showers  
Wind Chill: 11°   Ceiling: Unl
Heat Index: 11°   Visibility: 6mi
Dew Point:   Wind: 12mph
Humidity: 82%   Direction: 210°SSW
Pressure: 29.59"   Gusts: NA
Location:  57.99°N, 6.75°W
Report Text: EGPO 230850Z 21010KT 9999 VCSH FEW012 SCT019 11/08 Q1002
Loading
Personal Weather Stations






























Interactive Weather Map
Tropical Storm Tracking
New forecast layout! Learn more

10-Day Weather Forecast

Advertisements
Track Severe Weather on mobile